Time;durP1;ratioP1;P1;durP2;ratioP2;P2;SDS_P1;SDS_P2;PMS_P1;PMS_P2;Temp;Humidity;BMP_temperature;BMP_pressure;BME280_temperature;BME280_humidity;BME280_pressure;Samples;Min_cycle;Max_cycle;Signal;HPM_P1;HPM_P2
2023/11/01 00:01:38;;;;;;;3.23;3.03;;;11.20;99.90;;;;;;5053662;28;20807;-63
2023/11/01 00:04:05;;;;;;;4.20;3.80;;;11.20;99.90;;;;;;5053532;28;20552;-64
2023/11/01 00:06:32;;;;;;;3.33;3.00;;;11.30;99.90;;;;;;5053161;28;20982;-64
2023/11/01 00:08:59;;;;;;;4.80;3.17;;;11.30;99.90;;;;;;5053891;28;20448;-63
2023/11/01 00:11:26;;;;;;;3.30;3.00;;;11.30;99.90;;;;;;5053648;28;20471;-63
2023/11/01 00:13:53;;;;;;;4.27;3.90;;;11.20;99.90;;;;;;5053446;28;20468;-64
2023/11/01 00:16:20;;;;;;;3.63;3.30;;;11.30;99.90;;;;;;5052598;28;20484;-64
2023/11/01 00:18:48;;;;;;;3.07;2.87;;;11.30;99.90;;;;;;5053072;28;20449;-63
2023/11/01 00:21:14;;;;;;;3.27;2.67;;;11.20;99.90;;;;;;5045416;28;21034;-64
2023/11/01 00:23:41;;;;;;;3.37;3.00;;;11.20;99.90;;;;;;5052532;28;20479;-63
2023/11/01 00:26:08;;;;;;;3.07;2.70;;;11.20;99.90;;;;;;5052673;28;20441;-63
2023/11/01 00:28:35;;;;;;;2.93;2.73;;;11.20;99.90;;;;;;5053334;28;20524;-64
2023/11/01 00:31:02;;;;;;;2.90;2.70;;;11.20;99.90;;;;;;5052906;28;20540;-64
2023/11/01 00:33:29;;;;;;;4.00;3.53;;;11.20;99.90;;;;;;5052428;28;20504;-64
2023/11/01 00:35:57;;;;;;;3.20;2.90;;;11.20;99.90;;;;;;5051576;28;20554;-64
2023/11/01 00:38:24;;;;;;;2.63;2.43;;;11.20;99.90;;;;;;5052717;28;20451;-63
2023/11/01 00:40:51;;;;;;;4.50;3.57;;;11.20;99.90;;;;;;5052972;28;20448;-64
2023/11/01 00:43:17;;;;;;;4.40;3.20;;;11.20;99.90;;;;;;5053151;28;20533;-64
2023/11/01 00:45:44;;;;;;;3.90;3.60;;;11.20;99.90;;;;;;5052923;28;20451;-63
2023/11/01 00:48:11;;;;;;;4.90;2.70;;;11.20;99.90;;;;;;5052394;28;20445;-63
2023/11/01 00:50:38;;;;;;;4.87;2.73;;;11.20;99.90;;;;;;5053000;28;20445;-63
2023/11/01 00:53:06;;;;;;;5.30;3.73;;;11.20;99.90;;;;;;5052671;28;20449;-65
2023/11/01 00:55:33;;;;;;;4.60;3.70;;;11.20;99.90;;;;;;5051887;28;21014;-64
2023/11/01 00:58:00;;;;;;;4.00;3.20;;;11.20;99.90;;;;;;5052854;28;20449;-64
2023/11/01 01:00:26;;;;;;;4.23;3.00;;;11.20;99.90;;;;;;5052748;28;20445;-63
2023/11/01 01:02:53;;;;;;;3.53;3.23;;;11.20;99.90;;;;;;5052341;28;20449;-63
2023/11/01 01:05:22;;;;;;;4.63;4.33;;;11.20;99.90;;;;;;5052504;28;20503;-63
2023/11/01 01:07:49;;;;;;;5.03;3.00;;;11.20;99.90;;;;;;5052784;28;20456;-64
2023/11/01 01:10:17;;;;;;;4.20;3.90;;;11.20;99.90;;;;;;5052416;28;20536;-63
2023/11/01 01:12:45;;;;;;;3.83;3.53;;;11.30;99.90;;;;;;5052480;28;20453;-64
2023/11/01 01:15:12;;;;;;;3.97;3.57;;;11.30;99.90;;;;;;5050327;28;20575;-64
2023/11/01 01:17:39;;;;;;;3.87;3.53;;;11.30;99.90;;;;;;5037452;28;20529;-63
2023/11/01 01:20:06;;;;;;;8.53;3.30;;;11.30;99.90;;;;;;5034894;28;20452;-64
2023/11/01 01:22:33;;;;;;;4.40;4.00;;;11.30;99.90;;;;;;5052323;28;20451;-63
2023/11/01 01:25:00;;;;;;;3.43;3.23;;;11.30;99.90;;;;;;5052397;28;20465;-63
2023/11/01 01:27:28;;;;;;;5.80;3.93;;;11.30;99.90;;;;;;5052673;28;20448;-63
2023/11/01 01:29:55;;;;;;;7.30;3.73;;;11.30;99.90;;;;;;5052617;28;20449;-63
2023/11/01 01:32:22;;;;;;;5.60;4.07;;;11.30;99.90;;;;;;5052743;28;20455;-63
2023/11/01 01:34:49;;;;;;;8.00;4.20;;;11.20;99.90;;;;;;5052249;28;20469;-63
2023/11/01 01:37:15;;;;;;;5.87;4.47;;;11.30;99.90;;;;;;5044106;28;20485;-63
2023/11/01 01:39:42;;;;;;;3.93;3.63;;;11.30;99.90;;;;;;5052339;28;20445;-63
2023/11/01 01:42:09;;;;;;;6.27;3.33;;;11.30;99.90;;;;;;5052379;28;20973;-63
2023/11/01 01:44:37;;;;;;;3.43;3.07;;;11.30;99.90;;;;;;5052239;28;20468;-63
2023/11/01 01:47:05;;;;;;;2.93;2.40;;;11.30;99.90;;;;;;5052027;28;20936;-63
2023/11/01 01:49:32;;;;;;;2.80;2.67;;;11.30;99.90;;;;;;5052010;28;20448;-63
2023/11/01 01:52:00;;;;;;;2.50;2.27;;;11.30;99.90;;;;;;5052217;28;20510;-64
2023/11/01 01:54:27;;;;;;;2.83;2.50;;;11.40;99.90;;;;;;5051920;28;20477;-64
2023/11/01 01:56:54;;;;;;;3.53;3.00;;;11.40;99.90;;;;;;5051538;28;20584;-64
2023/11/01 01:59:22;;;;;;;2.73;2.53;;;11.40;99.90;;;;;;5051963;28;20456;-64
2023/11/01 02:01:50;;;;;;;5.40;2.20;;;11.40;99.90;;;;;;5052378;28;20531;-64
2023/11/01 02:04:17;;;;;;;3.83;2.57;;;11.40;99.90;;;;;;5051973;28;20479;-64
2023/11/01 02:06:45;;;;;;;3.47;3.27;;;11.40;99.90;;;;;;5051863;28;20445;-63
2023/11/01 02:09:15;;;;;;;2.20;2.10;;;11.40;99.90;;;;;;5051273;28;20459;-64
2023/11/01 02:11:42;;;;;;;1.97;1.87;;;11.40;99.90;;;;;;5051878;28;20519;-64
2023/11/01 02:14:09;;;;;;;5.10;3.50;;;11.40;99.90;;;;;;5051660;28;20552;-64
2023/11/01 02:16:36;;;;;;;3.33;2.10;;;11.40;99.90;;;;;;5051529;28;20680;-63
2023/11/01 02:19:04;;;;;;;3.20;2.40;;;11.40;99.90;;;;;;5051586;28;20455;-64
2023/11/01 02:21:32;;;;;;;1.93;1.73;;;11.40;99.90;;;;;;5051681;28;20532;-64
2023/11/01 02:24:00;;;;;;;3.03;2.73;;;11.30;99.90;;;;;;5051621;28;20495;-64
2023/11/01 02:26:27;;;;;;;2.77;2.67;;;11.30;99.90;;;;;;5051778;28;20449;-64
2023/11/01 02:28:54;;;;;;;3.03;2.47;;;11.30;99.90;;;;;;5051976;28;20842;-64
2023/11/01 02:31:21;;;;;;;2.50;2.40;;;11.30;99.90;;;;;;5051967;28;20442;-64
2023/11/01 02:33:48;;;;;;;3.83;2.50;;;11.20;99.90;;;;;;5051503;28;20468;-65
2023/11/01 02:36:15;;;;;;;3.23;2.30;;;11.20;99.90;;;;;;5051091;28;20485;-64
2023/11/01 02:38:42;;;;;;;2.43;2.20;;;11.20;99.90;;;;;;5051296;28;20445;-64
2023/11/01 02:41:10;;;;;;;5.67;2.53;;;11.10;99.90;;;;;;5051700;28;20449;-65
2023/11/01 02:43:37;;;;;;;2.40;1.93;;;11.10;99.90;;;;;;5051489;28;20839;-64
2023/11/01 02:46:04;;;;;;;1.50;1.40;;;11.10;99.90;;;;;;5051131;28;20441;-64
2023/11/01 02:48:31;;;;;;;3.97;1.87;;;11.10;99.90;;;;;;5051471;28;20448;-64
2023/11/01 02:50:57;;;;;;;4.33;3.13;;;11.10;99.90;;;;;;5051088;28;20453;-64
2023/11/01 02:53:24;;;;;;;2.00;1.90;;;11.10;99.90;;;;;;5051201;28;20551;-64
2023/11/01 02:55:51;;;;;;;2.93;1.73;;;11.10;99.90;;;;;;5050435;28;20484;-64
2023/11/01 02:58:23;;;;;;;2.07;1.97;;;11.00;99.90;;;;;;5051116;28;20889;-64
2023/11/01 03:00:50;;;;;;;2.30;2.10;;;11.00;99.90;;;;;;5050604;28;20448;-64
2023/11/01 03:03:17;;;;;;;2.23;1.87;;;11.00;99.90;;;;;;5051057;28;20449;-64
2023/11/01 03:05:44;;;;;;;2.93;2.00;;;11.00;99.90;;;;;;5050586;28;20457;-64
2023/11/01 03:08:10;;;;;;;3.40;2.90;;;10.90;99.90;;;;;;5051330;28;20888;-64
2023/11/01 03:10:37;;;;;;;2.47;2.13;;;11.00;99.90;;;;;;5051296;28;20455;-64
2023/11/01 03:13:04;;;;;;;2.67;2.40;;;11.00;99.90;;;;;;5051167;28;20539;-64
2023/11/01 03:15:32;;;;;;;2.40;2.20;;;11.00;99.90;;;;;;5050757;28;20449;-64
2023/11/01 03:17:59;;;;;;;3.17;2.43;;;11.00;99.90;;;;;;5050969;28;20998;-64
2023/11/01 03:20:26;;;;;;;3.50;2.30;;;11.00;99.90;;;;;;5050929;28;20457;-64
2023/11/01 03:22:53;;;;;;;2.00;1.80;;;11.00;99.90;;;;;;5051039;28;20531;-64
2023/11/01 03:25:20;;;;;;;2.50;2.03;;;11.00;99.90;;;;;;5050808;28;20460;-64
2023/11/01 03:27:46;;;;;;;3.87;2.90;;;11.00;99.90;;;;;;5051054;28;20532;-64
2023/11/01 03:30:13;;;;;;;4.60;2.20;;;11.00;99.90;;;;;;5050723;28;20452;-64
2023/11/01 03:32:42;;;;;;;3.83;1.90;;;11.00;99.90;;;;;;5050858;28;20472;-64
2023/11/01 03:35:09;;;;;;;2.80;1.90;;;11.00;99.90;;;;;;5050698;28;20553;-64
2023/11/01 03:37:35;;;;;;;1.83;1.73;;;11.00;99.90;;;;;;5050801;28;20575;-64
2023/11/01 03:40:02;;;;;;;6.93;2.30;;;11.00;99.90;;;;;;5051002;28;20441;-64
2023/11/01 03:42:29;;;;;;;3.23;2.40;;;11.00;99.90;;;;;;5050949;28;20464;-64
2023/11/01 03:44:56;;;;;;;3.17;2.27;;;11.00;99.90;;;;;;5050266;28;20850;-64
2023/11/01 03:47:23;;;;;;;2.37;2.17;;;11.00;99.90;;;;;;5050882;28;20437;-64
2023/11/01 03:49:51;;;;;;;2.73;2.63;;;11.10;99.90;;;;;;5050862;28;20449;-64
2023/11/01 03:52:18;;;;;;;3.53;3.17;;;11.10;99.90;;;;;;5050751;28;20823;-64
2023/11/01 03:54:45;;;;;;;8.03;2.30;;;11.10;99.90;;;;;;5050661;28;20564;-65
2023/11/01 03:57:11;;;;;;;2.83;2.23;;;11.10;99.90;;;;;;5050513;28;21012;-64
2023/11/01 03:59:38;;;;;;;2.93;2.60;;;11.10;99.90;;;;;;5050855;28;20507;-64
2023/11/01 04:02:05;;;;;;;3.80;2.13;;;11.10;99.90;;;;;;5050432;28;20445;-64
2023/11/01 04:04:32;;;;;;;3.17;2.40;;;11.10;99.90;;;;;;5050911;28;20481;-64
2023/11/01 04:07:00;;;;;;;2.80;2.30;;;11.10;99.90;;;;;;5050641;28;20514;-64
2023/11/01 04:09:27;;;;;;;2.00;1.70;;;11.10;99.90;;;;;;5050977;28;20828;-64
2023/11/01 04:11:54;;;;;;;5.23;1.73;;;11.10;99.90;;;;;;5051499;28;20454;-64
2023/11/01 04:14:21;;;;;;;2.60;2.40;;;11.10;99.90;;;;;;5053962;28;20475;-64
2023/11/01 04:16:48;;;;;;;4.07;2.43;;;11.10;99.90;;;;;;5053908;28;20498;-64
2023/11/01 04:19:18;;;;;;;3.40;1.60;;;11.10;99.90;;;;;;5054183;28;20475;-64
2023/11/01 04:21:44;;;;;;;4.53;2.23;;;11.10;99.90;;;;;;5053229;28;20444;-64
2023/11/01 04:24:13;;;;;;;2.37;1.93;;;11.10;99.90;;;;;;5054056;28;20468;-64
2023/11/01 04:26:40;;;;;;;18.33;3.33;;;11.10;99.90;;;;;;5053732;28;20458;-64
2023/11/01 04:29:07;;;;;;;2.33;2.23;;;11.10;99.90;;;;;;5053902;28;20467;-64
2023/11/01 04:31:34;;;;;;;2.03;1.83;;;11.10;99.90;;;;;;5053862;28;21065;-64
2023/11/01 04:34:01;;;;;;;2.30;2.10;;;11.10;99.90;;;;;;5053554;28;20471;-64
2023/11/01 04:36:28;;;;;;;4.23;2.40;;;11.10;99.90;;;;;;5053207;28;21002;-64
2023/11/01 04:38:55;;;;;;;2.30;2.10;;;11.10;99.90;;;;;;5053421;28;20498;-64
2023/11/01 04:41:27;;;;;;;2.13;2.03;;;11.10;99.90;;;;;;5053682;28;20476;-64
2023/11/01 04:43:53;;;;;;;3.93;2.40;;;11.10;99.90;;;;;;5053516;28;20519;-64
2023/11/01 04:46:20;;;;;;;2.50;1.90;;;11.10;99.90;;;;;;5053138;28;20536;-64
2023/11/01 04:48:47;;;;;;;2.83;1.90;;;11.10;99.90;;;;;;5053273;28;20500;-64
2023/11/01 04:51:14;;;;;;;4.90;2.87;;;11.10;99.90;;;;;;5053671;28;20541;-64
2023/11/01 04:53:41;;;;;;;2.53;2.33;;;11.00;99.90;;;;;;5053230;28;20476;-64
2023/11/01 04:56:09;;;;;;;2.40;2.30;;;11.10;99.90;;;;;;5075027;22;20591;-63
2023/11/01 04:58:37;;;;;;;3.60;2.30;;;11.10;99.90;;;;;;5053288;28;20531;-63
2023/11/01 05:01:05;;;;;;;3.80;2.87;;;11.10;99.90;;;;;;5053598;28;20868;-62
2023/11/01 05:03:32;;;;;;;3.40;3.00;;;11.00;99.90;;;;;;5053081;28;20472;-63
2023/11/01 05:05:59;;;;;;;3.40;2.23;;;11.00;99.90;;;;;;5052670;28;20990;-63
2023/11/01 05:08:26;;;;;;;2.83;2.40;;;11.00;99.90;;;;;;5053193;28;20436;-63
2023/11/01 05:10:53;;;;;;;2.60;1.87;;;11.00;99.90;;;;;;5053115;28;20445;-62
2023/11/01 05:13:20;;;;;;;2.77;2.27;;;11.00;99.90;;;;;;5052887;28;20536;-63
2023/11/01 05:15:49;;;;;;;2.93;1.90;;;11.00;99.90;;;;;;5052561;28;20511;-63
2023/11/01 05:18:15;;;;;;;3.67;2.80;;;11.00;99.90;;;;;;5052812;28;20487;-63
2023/11/01 05:20:42;;;;;;;1.70;1.60;;;11.00;99.90;;;;;;5053159;28;20531;-63
2023/11/01 05:23:09;;;;;;;2.10;2.00;;;11.00;99.90;;;;;;5052545;28;20487;-63
2023/11/01 05:25:36;;;;;;;3.27;2.10;;;11.00;99.90;;;;;;5052401;28;20830;-62
2023/11/01 05:28:03;;;;;;;1.90;1.80;;;11.00;99.90;;;;;;5052576;28;20531;-63
2023/11/01 05:30:30;;;;;;;3.87;2.13;;;11.00;99.90;;;;;;5052598;28;20448;-62
2023/11/01 05:32:58;;;;;;;2.03;1.90;;;11.00;99.90;;;;;;5052222;28;20451;-62
2023/11/01 05:35:25;;;;;;;2.17;1.97;;;11.00;99.90;;;;;;5052247;28;20465;-61
2023/11/01 05:37:52;;;;;;;2.43;2.23;;;11.00;99.90;;;;;;5052437;28;20494;-62
2023/11/01 05:40:19;;;;;;;2.37;2.03;;;11.00;99.90;;;;;;5052482;28;20463;-63
2023/11/01 05:42:47;;;;;;;5.20;2.20;;;11.00;99.90;;;;;;5052394;28;20444;-63
2023/11/01 05:45:16;;;;;;;2.37;2.17;;;11.00;99.90;;;;;;5051672;28;20536;-62
2023/11/01 05:47:49;;;;;;;2.50;2.30;;;11.00;99.90;;;;;;5052669;28;20441;-63
2023/11/01 05:50:18;;;;;;;3.60;2.70;;;10.90;99.90;;;;;;5052145;28;20449;-63
2023/11/01 05:52:45;;;;;;;3.63;2.43;;;10.90;99.90;;;;;;5051522;28;20532;-63
2023/11/01 05:55:12;;;;;;;7.53;2.30;;;10.90;99.90;;;;;;5051008;28;20452;-62
2023/11/01 05:57:38;;;;;;;2.20;2.00;;;10.90;99.90;;;;;;5051911;28;20486;-63
2023/11/01 06:00:08;;;;;;;3.33;2.17;;;10.90;99.90;;;;;;5052046;28;20455;-63
2023/11/01 06:02:37;;;;;;;2.60;2.40;;;10.90;99.90;;;;;;5052137;28;20457;-63
2023/11/01 06:05:04;;;;;;;2.60;2.40;;;10.90;99.90;;;;;;5051768;28;20453;-63
2023/11/01 06:07:33;;;;;;;3.97;2.23;;;10.90;99.90;;;;;;5052025;28;20467;-63
2023/11/01 06:09:59;;;;;;;2.83;2.63;;;10.90;99.90;;;;;;5052135;28;20531;-63
2023/11/01 06:12:26;;;;;;;4.10;2.60;;;10.90;99.90;;;;;;5051756;28;20455;-63
2023/11/01 06:14:53;;;;;;;4.87;2.33;;;10.90;99.90;;;;;;5051736;28;20953;-63
2023/11/01 06:17:20;;;;;;;4.53;2.80;;;10.90;99.90;;;;;;5051538;28;20968;-63
2023/11/01 06:19:48;;;;;;;3.50;1.80;;;10.90;99.90;;;;;;5051716;28;20452;-63
2023/11/01 06:22:16;;;;;;;2.40;2.20;;;10.90;99.90;;;;;;5051638;28;20487;-63
2023/11/01 06:24:44;;;;;;;3.37;3.07;;;10.90;99.90;;;;;;5051387;28;20449;-63
2023/11/01 06:27:12;;;;;;;2.77;2.53;;;10.90;99.90;;;;;;5051457;28;20556;-63
2023/11/01 06:29:42;;;;;;;2.57;2.37;;;10.90;99.90;;;;;;5051473;28;20453;-63
2023/11/01 06:32:09;;;;;;;2.70;2.50;;;10.90;99.90;;;;;;5050822;28;20455;-62
2023/11/01 06:34:36;;;;;;;3.30;3.00;;;11.00;99.90;;;;;;5050719;28;20453;-63
2023/11/01 06:37:02;;;;;;;2.60;2.43;;;11.00;99.90;;;;;;5051276;28;20484;-63
2023/11/01 06:39:29;;;;;;;3.70;3.33;;;11.00;99.90;;;;;;5051287;28;20437;-63
2023/11/01 06:41:57;;;;;;;2.87;2.57;;;11.00;99.90;;;;;;5051545;28;20539;-63
2023/11/01 06:44:24;;;;;;;6.20;2.73;;;11.00;99.90;;;;;;5051358;28;20535;-62
2023/11/01 06:46:52;;;;;;;2.83;2.30;;;11.00;99.90;;;;;;5050960;28;20557;-63
2023/11/01 06:49:19;;;;;;;4.47;2.30;;;11.00;99.90;;;;;;5051303;28;20449;-63
2023/11/01 06:51:46;;;;;;;3.23;2.87;;;11.00;99.90;;;;;;5051201;28;20455;-63
2023/11/01 06:54:13;;;;;;;3.30;2.87;;;11.00;99.90;;;;;;5051452;28;20543;-63
2023/11/01 06:56:44;;;;;;;2.80;2.60;;;11.00;99.90;;;;;;5047341;28;20476;-63
2023/11/01 06:59:13;;;;;;;2.93;2.60;;;11.00;99.90;;;;;;5035231;28;20450;-63
2023/11/01 07:01:40;;;;;;;3.87;3.07;;;11.00;99.90;;;;;;5030780;28;20450;-63
2023/11/01 07:04:07;;;;;;;3.33;2.90;;;11.10;99.90;;;;;;5030992;28;20443;-63
2023/11/01 07:06:34;;;;;;;2.17;2.07;;;11.10;99.90;;;;;;5046573;28;20560;-63
2023/11/01 07:09:01;;;;;;;3.13;2.67;;;11.10;99.90;;;;;;5043733;28;20532;-63
2023/11/01 07:11:28;;;;;;;7.50;3.77;;;11.10;99.90;;;;;;5050037;28;20484;-63
2023/11/01 07:13:54;;;;;;;4.03;3.73;;;11.20;99.90;;;;;;5049828;28;20829;-63
2023/11/01 07:16:23;;;;;;;3.03;2.83;;;11.20;99.90;;;;;;5046851;28;20465;-62
2023/11/01 07:18:49;;;;;;;3.03;2.53;;;11.20;99.90;;;;;;5030731;28;20517;-63
2023/11/01 07:21:17;;;;;;;4.40;2.57;;;11.20;99.90;;;;;;5030953;28;20446;-63
2023/11/01 07:23:44;;;;;;;5.13;4.70;;;11.20;99.90;;;;;;5031136;28;20450;-63
2023/11/01 07:26:11;;;;;;;2.73;2.50;;;11.30;99.90;;;;;;5030727;28;20499;-63
2023/11/01 07:28:38;;;;;;;2.90;2.70;;;11.30;99.90;;;;;;5031681;28;20533;-63
2023/11/01 07:31:05;;;;;;;3.00;2.77;;;11.30;99.90;;;;;;5042510;28;20444;-63
2023/11/01 07:33:33;;;;;;;3.37;2.30;;;11.30;99.90;;;;;;5050703;28;20544;-63
2023/11/01 07:36:00;;;;;;;6.77;3.13;;;11.30;99.90;;;;;;5050593;28;20520;-63
2023/11/01 07:38:27;;;;;;;2.53;2.33;;;11.40;99.90;;;;;;5050781;28;20595;-63
2023/11/01 07:40:53;;;;;;;2.33;2.13;;;11.40;99.90;;;;;;5050589;28;20540;-63
2023/11/01 07:43:20;;;;;;;3.07;2.87;;;11.50;99.90;;;;;;5050646;28;20539;-63
2023/11/01 07:45:47;;;;;;;3.53;2.87;;;11.50;99.90;;;;;;5050866;28;20479;-64
2023/11/01 07:48:14;;;;;;;3.07;2.87;;;11.50;99.90;;;;;;5054420;28;20536;-63
2023/11/01 07:50:42;;;;;;;3.07;2.00;;;11.60;99.90;;;;;;5053484;28;20465;-63
2023/11/01 07:53:09;;;;;;;5.30;2.57;;;11.60;99.90;;;;;;5039409;28;20449;-63
2023/11/01 07:55:36;;;;;;;3.87;2.47;;;11.60;99.90;;;;;;5044570;28;20488;-63
2023/11/01 07:58:03;;;;;;;6.57;3.23;;;11.70;99.90;;;;;;5051176;28;20575;-63
2023/11/01 08:00:30;;;;;;;4.87;4.00;;;11.70;99.90;;;;;;5045867;28;22177;-62
2023/11/01 08:02:57;;;;;;;6.87;3.87;;;11.80;99.90;;;;;;5045935;28;20467;-63
2023/11/01 08:05:24;;;;;;;3.00;2.80;;;11.80;99.90;;;;;;5048925;28;21016;-62
2023/11/01 08:07:53;;;;;;;4.77;3.70;;;11.80;99.90;;;;;;5053278;28;20951;-63
2023/11/01 08:10:21;;;;;;;3.70;2.60;;;11.80;99.90;;;;;;5034980;28;20540;-63
2023/11/01 08:12:48;;;;;;;8.17;2.57;;;11.80;99.90;;;;;;5046548;28;20445;-64
2023/11/01 08:15:14;;;;;;;4.73;3.00;;;11.80;99.90;;;;;;5049977;28;21051;-63
2023/11/01 08:17:41;;;;;;;2.80;2.30;;;11.80;99.90;;;;;;5053388;28;20488;-63
2023/11/01 08:20:09;;;;;;;6.27;3.67;;;11.80;99.90;;;;;;5045529;28;20513;-63
2023/11/01 08:22:36;;;;;;;7.53;3.40;;;11.80;99.90;;;;;;5053239;28;20540;-63
2023/11/01 08:25:04;;;;;;;5.37;2.97;;;11.90;99.90;;;;;;5048898;28;20467;-62
2023/11/01 08:27:31;;;;;;;4.90;3.23;;;11.90;99.90;;;;;;5048325;28;20481;-64
2023/11/01 08:29:58;;;;;;;3.53;2.60;;;11.90;99.90;;;;;;5044734;28;20456;-63
2023/11/01 08:32:25;;;;;;;4.70;2.20;;;12.00;99.90;;;;;;5049218;28;20458;-63
2023/11/01 08:34:53;;;;;;;2.23;2.13;;;12.00;99.90;;;;;;5052606;28;20461;-63
2023/11/01 08:37:20;;;;;;;4.27;2.33;;;12.00;99.90;;;;;;5047766;28;20473;-63
2023/11/01 08:39:47;;;;;;;1.87;1.70;;;12.00;99.90;;;;;;5046543;28;20827;-63
2023/11/01 08:42:15;;;;;;;6.57;3.00;;;12.10;99.90;;;;;;5048027;28;20551;-64
2023/11/01 08:44:42;;;;;;;5.20;2.10;;;12.10;99.90;;;;;;5053216;28;20453;-63
2023/11/01 08:47:09;;;;;;;2.37;2.17;;;12.20;99.90;;;;;;5046303;28;20472;-63
2023/11/01 08:49:35;;;;;;;2.80;1.83;;;12.20;99.90;;;;;;5044994;28;20884;-63
2023/11/01 08:52:02;;;;;;;4.10;2.60;;;12.20;99.90;;;;;;5052260;28;20475;-63
2023/11/01 08:54:31;;;;;;;2.37;2.17;;;12.30;99.90;;;;;;5042457;28;20448;-63
2023/11/01 08:56:58;;;;;;;3.50;1.87;;;12.30;99.90;;;;;;5048629;28;20861;-63
2023/11/01 08:59:26;;;;;;;3.00;1.83;;;12.30;99.90;;;;;;5052671;28;20484;-63
2023/11/01 09:01:53;;;;;;;2.73;2.10;;;12.40;99.90;;;;;;5047980;28;20453;-63
2023/11/01 09:04:20;;;;;;;1.70;1.60;;;12.40;99.90;;;;;;5049767;28;20442;-63
2023/11/01 09:06:47;;;;;;;1.90;1.80;;;12.50;99.90;;;;;;5051410;28;20475;-64
2023/11/01 09:09:13;;;;;;;1.67;1.40;;;12.50;99.90;;;;;;5034061;28;20453;-63
2023/11/01 09:11:40;;;;;;;3.30;2.00;;;12.50;99.90;;;;;;5033044;28;20451;-63
2023/11/01 09:14:07;;;;;;;3.40;2.57;;;12.60;99.90;;;;;;5033076;28;20472;-63
2023/11/01 09:16:35;;;;;;;1.37;1.37;;;12.60;99.90;;;;;;5032805;28;20468;-63
2023/11/01 09:19:02;;;;;;;3.63;1.63;;;12.60;99.90;;;;;;5043537;28;20489;-64
2023/11/01 09:21:29;;;;;;;8.00;1.90;;;12.70;99.90;;;;;;5045429;28;20447;-64
2023/11/01 09:23:55;;;;;;;1.97;1.73;;;12.70;99.90;;;;;;5050149;28;20455;-63
2023/11/01 09:26:22;;;;;;;2.40;2.20;;;12.70;99.90;;;;;;5051910;28;20461;-63
2023/11/01 09:28:50;;;;;;;3.90;1.80;;;12.80;99.90;;;;;;5052124;28;20550;-63
2023/11/01 09:31:17;;;;;;;3.27;1.87;;;12.90;99.90;;;;;;5051978;28;20974;-62
2023/11/01 09:33:48;;;;;;;1.47;1.37;;;12.90;99.90;;;;;;5037497;28;20534;-63
2023/11/01 09:36:15;;;;;;;3.00;1.80;;;13.00;99.90;;;;;;5031613;28;20470;-63
2023/11/01 09:38:42;;;;;;;3.00;1.90;;;13.20;99.90;;;;;;5050078;28;20579;-63
2023/11/01 09:41:10;;;;;;;1.40;1.30;;;13.20;99.90;;;;;;5039101;28;20440;-63
2023/11/01 09:43:37;;;;;;;3.00;1.83;;;13.30;99.90;;;;;;5051811;28;20899;-63
2023/11/01 09:46:04;;;;;;;4.97;1.33;;;13.40;99.90;;;;;;5051522;28;20467;-64
2023/11/01 09:48:32;;;;;;;1.73;1.63;;;13.50;99.90;;;;;;5052012;28;20865;-64
2023/11/01 09:51:03;;;;;;;1.90;1.30;;;13.60;99.90;;;;;;5051680;28;20814;-63
2023/11/01 09:53:31;;;;;;;3.40;1.80;;;13.70;99.90;;;;;;5052124;28;20481;-63
2023/11/01 09:55:58;;;;;;;2.13;1.70;;;13.70;99.90;;;;;;5049076;28;21059;-64
2023/11/01 09:58:27;;;;;;;4.30;1.80;;;13.80;99.90;;;;;;5040978;28;20569;-64
2023/11/01 10:00:57;;;;;;;1.93;1.83;;;13.90;99.90;;;;;;5046191;28;20492;-64
2023/11/01 10:03:24;;;;;;;1.93;1.63;;;13.90;99.90;;;;;;5031832;28;20449;-64
2023/11/01 10:05:52;;;;;;;1.70;1.60;;;14.00;99.90;;;;;;5034693;28;20476;-64
2023/11/01 10:08:21;;;;;;;2.37;1.53;;;14.00;99.90;;;;;;5034915;28;20447;-64
2023/11/01 10:10:48;;;;;;;2.53;1.57;;;14.10;99.90;;;;;;5051354;28;20869;-64
2023/11/01 10:13:15;;;;;;;1.80;1.57;;;14.00;99.90;;;;;;5051765;28;20824;-64
2023/11/01 10:15:42;;;;;;;2.20;1.43;;;14.00;99.90;;;;;;5044942;28;20500;-63
2023/11/01 10:18:09;;;;;;;3.47;2.03;;;14.00;99.90;;;;;;5049736;28;20571;-64
2023/11/01 10:20:36;;;;;;;3.50;1.57;;;14.00;99.90;;;;;;5051380;28;21181;-64
2023/11/01 10:23:02;;;;;;;2.10;1.73;;;14.10;99.90;;;;;;5050952;28;20868;-65
2023/11/01 10:25:31;;;;;;;4.13;1.73;;;14.10;99.90;;;;;;5050834;28;20464;-65
2023/11/01 10:27:57;;;;;;;2.33;1.50;;;14.20;99.90;;;;;;5042573;28;20481;-64
2023/11/01 10:30:25;;;;;;;2.20;1.60;;;14.30;99.90;;;;;;5031353;28;20442;-65
2023/11/01 10:32:56;;;;;;;2.40;1.07;;;14.40;99.90;;;;;;5048076;28;20445;-65
2023/11/01 10:35:23;;;;;;;1.20;1.10;;;14.50;99.90;;;;;;5050812;28;20850;-64
2023/11/01 10:37:57;;;;;;;4.10;1.37;;;14.60;99.90;;;;;;5048872;28;20449;-64
2023/11/01 10:40:24;;;;;;;1.50;1.40;;;14.70;99.90;;;;;;5048422;28;20445;-65
2023/11/01 10:42:57;;;;;;;0.80;0.80;;;14.80;99.90;;;;;;5036492;28;20794;-65
2023/11/01 10:45:24;;;;;;;2.50;1.23;;;14.80;99.90;;;;;;5029107;28;21215;-65
2023/11/01 10:47:52;;;;;;;3.43;1.13;;;14.80;99.90;;;;;;5041523;28;20506;-65
2023/11/01 10:50:19;;;;;;;1.87;1.03;;;14.90;99.90;;;;;;5049833;28;20552;-64
2023/11/01 10:52:47;;;;;;;1.60;1.13;;;15.00;99.90;;;;;;5039576;28;21071;-64
2023/11/01 10:55:17;;;;;;;2.70;1.00;;;15.00;99.90;;;;;;5030110;28;20532;-65
2023/11/01 10:57:44;;;;;;;1.87;1.10;;;15.00;99.90;;;;;;5029745;28;20454;-65
2023/11/01 11:00:18;;;;;;;4.00;1.10;;;15.20;99.90;;;;;;5038009;28;20484;-65
2023/11/01 11:02:51;;;;;;;1.50;0.97;;;15.20;99.90;;;;;;5049721;28;20841;-65
2023/11/01 11:05:22;;;;;;;3.33;1.10;;;15.30;99.90;;;;;;5071470;22;20591;-64
2023/11/01 11:07:52;;;;;;;2.60;1.00;;;15.40;99.90;;;;;;5050739;28;20441;-64
2023/11/01 11:10:24;;;;;;;1.80;1.50;;;15.60;99.90;;;;;;5050411;28;20448;-64
2023/11/01 11:13:38;;;;;;;1.53;1.10;;;15.60;99.90;;;;;;5050466;28;20445;-64
2023/11/01 11:16:08;;;;;;;3.23;1.03;;;15.70;99.90;;;;;;5014933;28;20554;-64
2023/11/01 11:18:55;;;;;;;3.33;1.33;;;15.70;99.90;;;;;;5050300;28;20518;-64
2023/11/01 11:22:01;;;;;;;1.70;1.60;;;15.60;99.90;;;;;;5052024;28;20448;-64
2023/11/01 11:24:55;;;;;;;1.23;0.90;;;15.60;99.90;;;;;;5054666;28;20444;-64
2023/11/01 11:28:02;;;;;;;3.70;2.67;;;15.60;99.90;;;;;;5053912;28;20441;-64
2023/11/01 11:31:08;;;;;;;3.50;1.40;;;15.60;99.90;;;;;;5053930;28;20453;-64
2023/11/01 11:33:39;;;;;;;2.80;1.60;;;15.50;99.90;;;;;;5047811;28;20436;-64
2023/11/01 11:36:13;;;;;;;2.93;1.10;;;15.50;99.90;;;;;;5053269;28;20518;-64
2023/11/01 11:38:49;;;;;;;1.47;1.30;;;15.60;99.90;;;;;;5054181;28;20498;-64
2023/11/01 11:41:17;;;;;;;2.73;0.90;;;15.70;99.90;;;;;;5054224;28;20931;-64
2023/11/01 11:44:05;;;;;;;4.30;1.13;;;15.80;99.90;;;;;;5054397;28;20441;-64
2023/11/01 11:46:34;;;;;;;2.87;0.90;;;15.90;99.90;;;;;;5052664;28;20475;-64
2023/11/01 11:49:03;;;;;;;1.50;1.30;;;16.10;99.90;;;;;;5053057;28;20445;-64
2023/11/01 11:51:33;;;;;;;1.87;1.00;;;16.30;99.90;;;;;;5049025;28;20449;-64
2023/11/01 11:54:10;;;;;;;1.67;1.23;;;16.40;99.90;;;;;;5050486;28;20456;-64
2023/11/01 11:56:38;;;;;;;1.37;1.30;;;16.60;99.90;;;;;;5052036;28;20483;-64
2023/11/01 11:59:04;;;;;;;1.33;0.93;;;16.60;99.90;;;;;;5053655;28;20480;-64
2023/11/01 12:01:31;;;;;;;2.37;1.10;;;16.70;99.90;;;;;;5053261;28;20535;-64
2023/11/01 12:03:59;;;;;;;1.70;1.27;;;16.80;99.90;;;;;;5053796;28;20535;-64
2023/11/01 12:06:38;;;;;;;2.50;1.43;;;16.90;99.90;;;;;;5050232;28;20476;-64
2023/11/01 12:09:11;;;;;;;2.10;1.17;;;17.00;99.90;;;;;;5053552;28;20448;-65
2023/11/01 12:11:38;;;;;;;2.73;1.20;;;17.10;99.90;;;;;;5048584;28;20540;-65
2023/11/01 12:14:05;;;;;;;2.63;0.90;;;17.20;99.90;;;;;;5052249;28;20451;-64
2023/11/01 12:16:33;;;;;;;2.07;1.50;;;17.30;99.90;;;;;;5051122;28;20476;-64
2023/11/01 12:19:20;;;;;;;2.10;1.40;;;17.30;99.90;;;;;;5049548;28;20488;-64
2023/11/01 12:21:50;;;;;;;1.10;0.90;;;17.40;99.90;;;;;;5052672;28;20456;-64
2023/11/01 12:24:18;;;;;;;1.40;1.20;;;17.40;99.90;;;;;;5053507;28;20452;-64
2023/11/01 12:26:58;;;;;;;1.93;1.27;;;17.50;99.90;;;;;;5047157;28;20488;-64
2023/11/01 12:29:31;;;;;;;1.43;1.00;;;17.60;99.90;;;;;;5051389;28;20436;-64
2023/11/01 12:32:06;;;;;;;3.10;1.37;;;17.80;99.90;;;;;;5053491;28;20880;-65
2023/11/01 12:34:33;;;;;;;2.50;1.17;;;18.00;99.90;;;;;;5045706;28;20446;-64
2023/11/01 12:37:06;;;;;;;2.03;1.20;;;18.20;99.90;;;;;;5054397;28;20539;-65
2023/11/01 12:39:34;;;;;;;2.00;1.23;;;18.30;99.90;;;;;;5046389;28;20567;-64
2023/11/01 12:42:24;;;;;;;2.87;1.00;;;18.40;99.90;;;;;;5052324;28;20453;-64
2023/11/01 12:44:53;;;;;;;1.40;1.30;;;18.40;99.90;;;;;;5047903;28;20495;-65
2023/11/01 12:47:20;;;;;;;6.43;1.03;;;18.40;99.90;;;;;;5051870;28;20449;-65
2023/11/01 12:49:48;;;;;;;1.33;1.23;;;18.40;99.90;;;;;;5052481;28;20445;-64
2023/11/01 12:52:17;;;;;;;1.77;0.90;;;18.20;99.90;;;;;;5054734;28;20480;-64
2023/11/01 12:54:44;;;;;;;2.33;0.73;;;18.10;99.90;;;;;;5051846;28;20465;-64